sensor_id;sensor_type;location;lat;lon;timestamp;pressure;altitude;pressure_sealevel;temperature;humidity
5966;BME280;3009;43.224;27.976;2023-04-10T00:01:32;100646.31;;;6.77;71.63
5966;BME280;3009;43.224;27.976;2023-04-10T00:04:02;100634.84;;;6.76;71.31
5966;BME280;3009;43.224;27.976;2023-04-10T00:06:32;100639.31;;;6.86;70.71
5966;BME280;3009;43.224;27.976;2023-04-10T00:09:01;100634.00;;;6.86;70.42
5966;BME280;3009;43.224;27.976;2023-04-10T00:11:29;100637.28;;;6.72;71.31
5966;BME280;3009;43.224;27.976;2023-04-10T00:13:57;100629.31;;;6.62;71.75
5966;BME280;3009;43.224;27.976;2023-04-10T00:16:26;100630.09;;;6.68;71.27
5966;BME280;3009;43.224;27.976;2023-04-10T00:18:54;100632.50;;;6.64;71.52
5966;BME280;3009;43.224;27.976;2023-04-10T00:21:23;100622.06;;;6.78;70.53
5966;BME280;3009;43.224;27.976;2023-04-10T00:23:53;100625.28;;;6.70;70.58
5966;BME280;3009;43.224;27.976;2023-04-10T00:26:22;100618.38;;;6.69;70.18
5966;BME280;3009;43.224;27.976;2023-04-10T00:28:52;100622.66;;;6.65;70.95
5966;BME280;3009;43.224;27.976;2023-04-10T00:31:20;100619.34;;;6.83;69.35
5966;BME280;3009;43.224;27.976;2023-04-10T00:33:48;100609.78;;;6.77;69.73
5966;BME280;3009;43.224;27.976;2023-04-10T00:36:18;100613.53;;;6.76;69.84
5966;BME280;3009;43.224;27.976;2023-04-10T00:38:47;100606.50;;;6.90;68.59
5966;BME280;3009;43.224;27.976;2023-04-10T00:41:17;100606.00;;;6.88;68.66
5966;BME280;3009;43.224;27.976;2023-04-10T00:43:45;100598.44;;;7.01;67.67
5966;BME280;3009;43.224;27.976;2023-04-10T00:46:14;100596.63;;;6.96;68.00
5966;BME280;3009;43.224;27.976;2023-04-10T00:48:42;100593.63;;;7.03;67.65
5966;BME280;3009;43.224;27.976;2023-04-10T00:51:11;100588.78;;;7.10;67.05
5966;BME280;3009;43.224;27.976;2023-04-10T00:53:39;100593.28;;;7.15;66.68
5966;BME280;3009;43.224;27.976;2023-04-10T00:56:08;100591.66;;;7.19;66.72
5966;BME280;3009;43.224;27.976;2023-04-10T00:58:39;100583.31;;;7.25;66.18
5966;BME280;3009;43.224;27.976;2023-04-10T01:01:08;100580.69;;;7.20;66.15
5966;BME280;3009;43.224;27.976;2023-04-10T01:03:38;100584.66;;;7.23;66.07
5966;BME280;3009;43.224;27.976;2023-04-10T01:06:13;100587.59;;;7.21;65.95
5966;BME280;3009;43.224;27.976;2023-04-10T01:08:49;100578.25;;;7.24;66.03
5966;BME280;3009;43.224;27.976;2023-04-10T01:11:29;100575.31;;;7.25;65.85
5966;BME280;3009;43.224;27.976;2023-04-10T01:14:13;100579.09;;;7.19;66.05
5966;BME280;3009;43.224;27.976;2023-04-10T01:16:48;100583.38;;;7.20;66.08
5966;BME280;3009;43.224;27.976;2023-04-10T01:19:35;100579.16;;;7.14;66.34
5966;BME280;3009;43.224;27.976;2023-04-10T01:22:13;100582.97;;;7.03;66.91
5966;BME280;3009;43.224;27.976;2023-04-10T01:25:00;100582.41;;;7.06;66.98
5966;BME280;3009;43.224;27.976;2023-04-10T01:27:40;100583.03;;;6.92;67.38
5966;BME280;3009;43.224;27.976;2023-04-10T01:30:15;100580.56;;;7.01;66.52
5966;BME280;3009;43.224;27.976;2023-04-10T01:32:45;100575.75;;;7.03;66.41
5966;BME280;3009;43.224;27.976;2023-04-10T01:35:16;100574.41;;;7.06;66.30
5966;BME280;3009;43.224;27.976;2023-04-10T01:37:47;100572.56;;;7.01;66.43
5966;BME280;3009;43.224;27.976;2023-04-10T01:40:18;100579.78;;;7.01;66.63
5966;BME280;3009;43.224;27.976;2023-04-10T01:42:50;100574.97;;;7.03;66.39
5966;BME280;3009;43.224;27.976;2023-04-10T01:45:25;100575.19;;;7.06;66.39
5966;BME280;3009;43.224;27.976;2023-04-10T01:47:57;100565.84;;;7.09;66.07
5966;BME280;3009;43.224;27.976;2023-04-10T01:50:27;100569.56;;;7.08;66.10
5966;BME280;3009;43.224;27.976;2023-04-10T01:52:58;100569.28;;;7.09;66.24
5966;BME280;3009;43.224;27.976;2023-04-10T01:55:28;100564.56;;;7.01;66.80
5966;BME280;3009;43.224;27.976;2023-04-10T01:57:58;100565.63;;;7.00;67.32
5966;BME280;3009;43.224;27.976;2023-04-10T02:00:28;100558.25;;;6.92;67.63
5966;BME280;3009;43.224;27.976;2023-04-10T02:02:57;100556.91;;;6.95;68.11
5966;BME280;3009;43.224;27.976;2023-04-10T02:05:29;100558.19;;;7.02;68.42
5966;BME280;3009;43.224;27.976;2023-04-10T02:08:05;100559.75;;;7.03;68.75
5966;BME280;3009;43.224;27.976;2023-04-10T02:10:40;100558.47;;;7.01;69.48
5966;BME280;3009;43.224;27.976;2023-04-10T02:13:12;100565.84;;;7.09;69.56
5966;BME280;3009;43.224;27.976;2023-04-10T02:15:45;100560.84;;;7.02;70.04
5966;BME280;3009;43.224;27.976;2023-04-10T02:18:15;100553.16;;;6.96;70.41
5966;BME280;3009;43.224;27.976;2023-04-10T02:20:45;100559.00;;;6.98;70.86
5966;BME280;3009;43.224;27.976;2023-04-10T02:23:14;100553.16;;;6.96;71.05
5966;BME280;3009;43.224;27.976;2023-04-10T02:25:45;100556.38;;;6.92;71.31
5966;BME280;3009;43.224;27.976;2023-04-10T02:28:13;100549.19;;;6.93;71.50
5966;BME280;3009;43.224;27.976;2023-04-10T02:30:43;100554.53;;;6.88;72.14
5966;BME280;3009;43.224;27.976;2023-04-10T02:33:11;100546.63;;;6.78;73.52
5966;BME280;3009;43.224;27.976;2023-04-10T02:35:40;100542.66;;;6.75;74.25
5966;BME280;3009;43.224;27.976;2023-04-10T02:38:08;100538.34;;;6.79;75.28
5966;BME280;3009;43.224;27.976;2023-04-10T02:40:36;100538.84;;;6.86;74.95
5966;BME280;3009;43.224;27.976;2023-04-10T02:43:05;100545.44;;;6.94;75.45
5966;BME280;3009;43.224;27.976;2023-04-10T02:45:33;100545.75;;;6.87;76.46
5966;BME280;3009;43.224;27.976;2023-04-10T02:48:04;100548.94;;;6.89;77.01
5966;BME280;3009;43.224;27.976;2023-04-10T02:50:33;100546.25;;;6.95;77.16
5966;BME280;3009;43.224;27.976;2023-04-10T02:53:01;100543.84;;;6.93;77.17
5966;BME280;3009;43.224;27.976;2023-04-10T02:55:30;100543.88;;;6.88;77.95
5966;BME280;3009;43.224;27.976;2023-04-10T02:57:58;100544.44;;;6.85;78.85
5966;BME280;3009;43.224;27.976;2023-04-10T03:00:26;100543.03;;;6.92;79.20
5966;BME280;3009;43.224;27.976;2023-04-10T03:02:55;100534.47;;;7.01;79.36
5966;BME280;3009;43.224;27.976;2023-04-10T03:05:25;100540.03;;;7.04;79.25
5966;BME280;3009;43.224;27.976;2023-04-10T03:07:54;100530.19;;;7.00;79.09
5966;BME280;3009;43.224;27.976;2023-04-10T03:10:23;100531.78;;;7.01;80.08
5966;BME280;3009;43.224;27.976;2023-04-10T03:12:51;100534.22;;;6.97;80.67
5966;BME280;3009;43.224;27.976;2023-04-10T03:15:19;100528.56;;;7.04;80.84
5966;BME280;3009;43.224;27.976;2023-04-10T03:17:48;100522.19;;;7.00;81.36
5966;BME280;3009;43.224;27.976;2023-04-10T03:20:16;100537.97;;;6.96;81.61
5966;BME280;3009;43.224;27.976;2023-04-10T03:22:46;100538.47;;;6.98;80.34
5966;BME280;3009;43.224;27.976;2023-04-10T03:25:15;100532.94;;;6.89;81.06
5966;BME280;3009;43.224;27.976;2023-04-10T03:27:43;100528.16;;;6.86;81.20
5966;BME280;3009;43.224;27.976;2023-04-10T03:30:12;100524.28;;;6.73;82.17
5966;BME280;3009;43.224;27.976;2023-04-10T03:32:40;100524.22;;;6.79;81.81
5966;BME280;3009;43.224;27.976;2023-04-10T03:35:09;100532.00;;;6.75;82.75
5966;BME280;3009;43.224;27.976;2023-04-10T03:37:37;100522.97;;;6.71;83.41
5966;BME280;3009;43.224;27.976;2023-04-10T03:40:10;100520.03;;;6.72;83.61
5966;BME280;3009;43.224;27.976;2023-04-10T03:42:39;100514.41;;;6.74;84.07
5966;BME280;3009;43.224;27.976;2023-04-10T03:45:08;100515.75;;;6.71;84.57
5966;BME280;3009;43.224;27.976;2023-04-10T03:47:37;100522.47;;;6.69;84.60
5966;BME280;3009;43.224;27.976;2023-04-10T03:50:06;100517.06;;;6.74;84.83
5966;BME280;3009;43.224;27.976;2023-04-10T03:52:34;100510.16;;;6.73;85.08
5966;BME280;3009;43.224;27.976;2023-04-10T03:55:03;100518.69;;;6.70;85.79
5966;BME280;3009;43.224;27.976;2023-04-10T03:57:33;100511.97;;;6.78;85.47
5966;BME280;3009;43.224;27.976;2023-04-10T04:00:01;100516.25;;;6.79;85.79
5966;BME280;3009;43.224;27.976;2023-04-10T04:02:31;100519.75;;;6.74;86.26
5966;BME280;3009;43.224;27.976;2023-04-10T04:05:00;100525.00;;;6.84;86.13
5966;BME280;3009;43.224;27.976;2023-04-10T04:07:28;100522.56;;;6.88;85.92
5966;BME280;3009;43.224;27.976;2023-04-10T04:09:57;100519.59;;;6.95;85.84
5966;BME280;3009;43.224;27.976;2023-04-10T04:12:26;100523.81;;;7.01;85.55
5966;BME280;3009;43.224;27.976;2023-04-10T04:14:55;100525.63;;;7.05;86.01
5966;BME280;3009;43.224;27.976;2023-04-10T04:17:24;100524.97;;;7.19;85.53
5966;BME280;3009;43.224;27.976;2023-04-10T04:19:52;100518.78;;;7.23;85.42
5966;BME280;3009;43.224;27.976;2023-04-10T04:22:21;100526.34;;;7.40;84.31
5966;BME280;3009;43.224;27.976;2023-04-10T04:24:49;100522.44;;;7.57;83.27
5966;BME280;3009;43.224;27.976;2023-04-10T04:27:18;100526.44;;;7.59;82.52
5966;BME280;3009;43.224;27.976;2023-04-10T04:29:47;100526.72;;;7.58;82.82
5966;BME280;3009;43.224;27.976;2023-04-10T04:32:26;100530.34;;;7.67;82.76
5966;BME280;3009;43.224;27.976;2023-04-10T04:34:54;100530.44;;;7.81;82.13
5966;BME280;3009;43.224;27.976;2023-04-10T04:37:23;100529.94;;;7.79;81.48
5966;BME280;3009;43.224;27.976;2023-04-10T04:39:51;100522.16;;;7.83;81.12
5966;BME280;3009;43.224;27.976;2023-04-10T04:42:20;100529.59;;;7.86;81.00
5966;BME280;3009;43.224;27.976;2023-04-10T04:44:48;100534.00;;;7.95;80.11
5966;BME280;3009;43.224;27.976;2023-04-10T04:47:17;100525.09;;;8.05;79.43
5966;BME280;3009;43.224;27.976;2023-04-10T04:49:48;100527.47;;;8.07;79.06
5966;BME280;3009;43.224;27.976;2023-04-10T04:52:16;100537.28;;;8.11;78.30
5966;BME280;3009;43.224;27.976;2023-04-10T04:54:45;100524.81;;;8.26;78.50
5966;BME280;3009;43.224;27.976;2023-04-10T04:57:13;100513.41;;;8.20;78.13
5966;BME280;3009;43.224;27.976;2023-04-10T04:59:41;100522.19;;;8.21;78.14
5966;BME280;3009;43.224;27.976;2023-04-10T05:02:10;100533.81;;;8.30;77.59
5966;BME280;3009;43.224;27.976;2023-04-10T05:04:39;100528.78;;;8.28;77.17
5966;BME280;3009;43.224;27.976;2023-04-10T05:07:09;100525.22;;;8.33;77.23
5966;BME280;3009;43.224;27.976;2023-04-10T05:09:39;100532.91;;;8.40;76.60
5966;BME280;3009;43.224;27.976;2023-04-10T05:12:07;100524.75;;;8.31;77.32
5966;BME280;3009;43.224;27.976;2023-04-10T05:14:36;100534.06;;;8.33;76.87
5966;BME280;3009;43.224;27.976;2023-04-10T05:17:05;100527.56;;;8.40;76.59
5966;BME280;3009;43.224;27.976;2023-04-10T05:19:33;100522.94;;;8.45;76.39
5966;BME280;3009;43.224;27.976;2023-04-10T05:22:02;100524.97;;;8.54;75.67
5966;BME280;3009;43.224;27.976;2023-04-10T05:24:31;100529.53;;;8.53;75.62
5966;BME280;3009;43.224;27.976;2023-04-10T05:27:00;100539.75;;;8.65;75.15
5966;BME280;3009;43.224;27.976;2023-04-10T05:29:28;100542.97;;;8.67;74.45
5966;BME280;3009;43.224;27.976;2023-04-10T05:31:57;100536.31;;;8.64;74.58
5966;BME280;3009;43.224;27.976;2023-04-10T05:34:25;100535.09;;;8.76;74.21
5966;BME280;3009;43.224;27.976;2023-04-10T05:36:54;100540.53;;;8.84;73.56
5966;BME280;3009;43.224;27.976;2023-04-10T05:39:24;100538.75;;;8.80;74.06
5966;BME280;3009;43.224;27.976;2023-04-10T05:41:54;100547.69;;;8.89;73.78
5966;BME280;3009;43.224;27.976;2023-04-10T05:44:24;100533.84;;;9.01;72.89
5966;BME280;3009;43.224;27.976;2023-04-10T05:46:52;100552.41;;;9.11;72.76
5966;BME280;3009;43.224;27.976;2023-04-10T05:49:20;100548.38;;;9.14;72.85
5966;BME280;3009;43.224;27.976;2023-04-10T05:51:49;100548.06;;;9.15;72.54
5966;BME280;3009;43.224;27.976;2023-04-10T05:54:18;100539.22;;;9.15;72.93
5966;BME280;3009;43.224;27.976;2023-04-10T05:56:47;100545.81;;;9.22;73.21
5966;BME280;3009;43.224;27.976;2023-04-10T05:59:16;100536.81;;;9.32;72.47
5966;BME280;3009;43.224;27.976;2023-04-10T06:01:45;100551.78;;;9.33;72.21
5966;BME280;3009;43.224;27.976;2023-04-10T06:04:13;100544.06;;;9.46;71.86
5966;BME280;3009;43.224;27.976;2023-04-10T06:06:42;100540.19;;;9.52;72.06
5966;BME280;3009;43.224;27.976;2023-04-10T06:09:11;100542.56;;;9.39;72.12
5966;BME280;3009;43.224;27.976;2023-04-10T06:11:39;100547.75;;;9.50;71.95
5966;BME280;3009;43.224;27.976;2023-04-10T06:14:07;100540.19;;;9.66;70.97
5966;BME280;3009;43.224;27.976;2023-04-10T06:16:37;100545.66;;;9.61;70.41
5966;BME280;3009;43.224;27.976;2023-04-10T06:19:06;100545.53;;;9.80;70.35
5966;BME280;3009;43.224;27.976;2023-04-10T06:21:34;100543.97;;;9.65;70.64
5966;BME280;3009;43.224;27.976;2023-04-10T06:24:03;100549.22;;;9.84;70.02
5966;BME280;3009;43.224;27.976;2023-04-10T06:26:31;100559.34;;;9.73;69.43
5966;BME280;3009;43.224;27.976;2023-04-10T06:28:59;100553.28;;;9.67;69.96
5966;BME280;3009;43.224;27.976;2023-04-10T06:31:31;100550.78;;;9.57;70.49
5966;BME280;3009;43.224;27.976;2023-04-10T06:34:01;100561.84;;;9.69;70.09
5966;BME280;3009;43.224;27.976;2023-04-10T06:36:29;100554.47;;;9.61;69.85
5966;BME280;3009;43.224;27.976;2023-04-10T06:38:58;100568.38;;;9.63;70.00
5966;BME280;3009;43.224;27.976;2023-04-10T06:41:28;100571.66;;;9.74;68.75
5966;BME280;3009;43.224;27.976;2023-04-10T06:43:56;100573.63;;;9.96;68.71
5966;BME280;3009;43.224;27.976;2023-04-10T06:46:28;100575.19;;;10.11;67.47
5966;BME280;3009;43.224;27.976;2023-04-10T06:48:57;100572.22;;;9.99;67.56
5966;BME280;3009;43.224;27.976;2023-04-10T06:51:27;100573.19;;;10.17;67.59
5966;BME280;3009;43.224;27.976;2023-04-10T06:53:55;100571.53;;;10.35;66.80
5966;BME280;3009;43.224;27.976;2023-04-10T06:56:24;100564.94;;;10.77;65.63
5966;BME280;3009;43.224;27.976;2023-04-10T06:58:52;100577.00;;;10.66;63.18
5966;BME280;3009;43.224;27.976;2023-04-10T07:01:22;100590.63;;;10.56;63.29
5966;BME280;3009;43.224;27.976;2023-04-10T07:03:52;100579.69;;;10.52;63.35
5966;BME280;3009;43.224;27.976;2023-04-10T07:06:20;100573.19;;;10.67;62.67
5966;BME280;3009;43.224;27.976;2023-04-10T07:08:50;100586.16;;;10.88;62.34
5966;BME280;3009;43.224;27.976;2023-04-10T07:11:19;100586.63;;;10.90;62.06
5966;BME280;3009;43.224;27.976;2023-04-10T07:13:47;100572.16;;;10.54;62.45
5966;BME280;3009;43.224;27.976;2023-04-10T07:16:19;100578.84;;;10.79;62.44
5966;BME280;3009;43.224;27.976;2023-04-10T07:18:48;100570.19;;;11.05;61.94
5966;BME280;3009;43.224;27.976;2023-04-10T07:21:16;100578.53;;;11.26;62.27
5966;BME280;3009;43.224;27.976;2023-04-10T07:23:44;100569.41;;;11.36;61.86
5966;BME280;3009;43.224;27.976;2023-04-10T07:26:14;100573.28;;;11.52;61.65
5966;BME280;3009;43.224;27.976;2023-04-10T07:28:43;100564.19;;;11.71;61.96
5966;BME280;3009;43.224;27.976;2023-04-10T07:31:12;100565.63;;;11.77;61.51
5966;BME280;3009;43.224;27.976;2023-04-10T07:33:40;100573.56;;;11.82;61.26
5966;BME280;3009;43.224;27.976;2023-04-10T07:36:09;100569.69;;;12.06;61.62
5966;BME280;3009;43.224;27.976;2023-04-10T07:38:38;100569.50;;;11.53;60.79
5966;BME280;3009;43.224;27.976;2023-04-10T07:41:06;100570.88;;;11.82;60.84
5966;BME280;3009;43.224;27.976;2023-04-10T07:43:37;100581.94;;;11.89;60.00
5966;BME280;3009;43.224;27.976;2023-04-10T07:46:05;100572.06;;;11.67;60.85
5966;BME280;3009;43.224;27.976;2023-04-10T07:48:34;100566.59;;;11.81;60.23
5966;BME280;3009;43.224;27.976;2023-04-10T07:51:03;100571.13;;;12.12;59.08
5966;BME280;3009;43.224;27.976;2023-04-10T07:53:35;100568.13;;;12.05;60.35
5966;BME280;3009;43.224;27.976;2023-04-10T07:56:04;100563.25;;;12.51;58.83
5966;BME280;3009;43.224;27.976;2023-04-10T07:58:32;100564.53;;;12.53;58.07
5966;BME280;3009;43.224;27.976;2023-04-10T08:01:03;100573.69;;;12.44;57.91
5966;BME280;3009;43.224;27.976;2023-04-10T08:03:37;100574.31;;;12.32;59.82
5966;BME280;3009;43.224;27.976;2023-04-10T08:06:06;100558.78;;;12.02;60.03
5966;BME280;3009;43.224;27.976;2023-04-10T08:08:36;100542.88;;;11.83;61.45
5966;BME280;3009;43.224;27.976;2023-04-10T08:11:06;100550.28;;;11.69;61.93
5966;BME280;3009;43.224;27.976;2023-04-10T08:13:35;100558.53;;;11.81;62.78
5966;BME280;3009;43.224;27.976;2023-04-10T08:16:06;100557.50;;;12.00;62.08
5966;BME280;3009;43.224;27.976;2023-04-10T08:18:34;100545.25;;;11.85;62.51
5966;BME280;3009;43.224;27.976;2023-04-10T08:21:03;100550.44;;;12.30;62.22
5966;BME280;3009;43.224;27.976;2023-04-10T08:23:32;100546.63;;;12.22;62.65
5966;BME280;3009;43.224;27.976;2023-04-10T08:26:00;100557.56;;;12.44;61.57
5966;BME280;3009;43.224;27.976;2023-04-10T08:28:29;100541.28;;;12.40;62.30
5966;BME280;3009;43.224;27.976;2023-04-10T08:30:58;100546.03;;;12.61;61.96
5966;BME280;3009;43.224;27.976;2023-04-10T08:33:28;100534.94;;;12.36;62.65
5966;BME280;3009;43.224;27.976;2023-04-10T08:35:56;100538.09;;;12.55;63.32
5966;BME280;3009;43.224;27.976;2023-04-10T08:38:25;100543.75;;;12.10;64.04
5966;BME280;3009;43.224;27.976;2023-04-10T08:40:53;100544.25;;;12.30;64.11
5966;BME280;3009;43.224;27.976;2023-04-10T08:43:22;100541.91;;;12.28;64.68
5966;BME280;3009;43.224;27.976;2023-04-10T08:45:51;100528.63;;;12.49;64.42
5966;BME280;3009;43.224;27.976;2023-04-10T08:48:20;100527.50;;;12.07;66.41
5966;BME280;3009;43.224;27.976;2023-04-10T08:50:50;100523.03;;;12.11;68.03
5966;BME280;3009;43.224;27.976;2023-04-10T08:53:21;100522.75;;;12.30;67.83
5966;BME280;3009;43.224;27.976;2023-04-10T08:55:51;100531.28;;;12.32;67.20
5966;BME280;3009;43.224;27.976;2023-04-10T08:58:20;100521.31;;;12.50;66.56
5966;BME280;3009;43.224;27.976;2023-04-10T09:00:49;100508.03;;;12.27;68.34
5966;BME280;3009;43.224;27.976;2023-04-10T09:03:18;100514.53;;;12.44;68.17
5966;BME280;3009;43.224;27.976;2023-04-10T09:05:46;100513.44;;;12.18;69.58
5966;BME280;3009;43.224;27.976;2023-04-10T09:08:16;100503.63;;;12.05;71.34
5966;BME280;3009;43.224;27.976;2023-04-10T09:10:45;100501.94;;;11.86;72.43
5966;BME280;3009;43.224;27.976;2023-04-10T09:13:13;100505.06;;;12.20;71.52
5966;BME280;3009;43.224;27.976;2023-04-10T09:15:57;100501.09;;;12.35;71.13
5966;BME280;3009;43.224;27.976;2023-04-10T09:18:43;100494.59;;;12.01;71.85
5966;BME280;3009;43.224;27.976;2023-04-10T09:21:14;100489.06;;;12.58;69.18
5966;BME280;3009;43.224;27.976;2023-04-10T09:23:46;100487.63;;;12.52;69.77
5966;BME280;3009;43.224;27.976;2023-04-10T09:26:25;100487.63;;;12.35;71.65
5966;BME280;3009;43.224;27.976;2023-04-10T09:29:01;100485.91;;;12.65;70.12
5966;BME280;3009;43.224;27.976;2023-04-10T09:31:31;100486.06;;;12.25;71.04
5966;BME280;3009;43.224;27.976;2023-04-10T09:34:08;100468.34;;;12.41;69.92
5966;BME280;3009;43.224;27.976;2023-04-10T09:36:37;100476.53;;;12.71;70.19
5966;BME280;3009;43.224;27.976;2023-04-10T09:39:10;100478.47;;;12.53;70.55
5966;BME280;3009;43.224;27.976;2023-04-10T09:41:49;100481.13;;;12.71;69.37
5966;BME280;3009;43.224;27.976;2023-04-10T09:44:27;100471.91;;;12.89;68.00
5966;BME280;3009;43.224;27.976;2023-04-10T09:46:56;100478.19;;;13.02;68.76
5966;BME280;3009;43.224;27.976;2023-04-10T09:49:25;100472.59;;;12.69;68.84
5966;BME280;3009;43.224;27.976;2023-04-10T09:51:53;100465.63;;;12.68;68.80
5966;BME280;3009;43.224;27.976;2023-04-10T09:54:35;100469.34;;;13.02;67.88
5966;BME280;3009;43.224;27.976;2023-04-10T09:57:04;100461.91;;;13.46;66.13
5966;BME280;3009;43.224;27.976;2023-04-10T09:59:36;100472.94;;;13.15;66.41
5966;BME280;3009;43.224;27.976;2023-04-10T10:02:09;100465.91;;;12.92;66.41
5966;BME280;3009;43.224;27.976;2023-04-10T10:04:40;100477.63;;;13.35;65.61
5966;BME280;3009;43.224;27.976;2023-04-10T10:07:09;100473.78;;;12.98;66.83
5966;BME280;3009;43.224;27.976;2023-04-10T10:09:39;100481.28;;;12.74;67.77
5966;BME280;3009;43.224;27.976;2023-04-10T10:12:11;100461.97;;;12.72;69.34
5966;BME280;3009;43.224;27.976;2023-04-10T10:14:45;100461.06;;;12.59;70.20
5966;BME280;3009;43.224;27.976;2023-04-10T10:17:17;100447.09;;;12.66;70.67
5966;BME280;3009;43.224;27.976;2023-04-10T10:19:56;100441.91;;;12.70;70.64
5966;BME280;3009;43.224;27.976;2023-04-10T10:22:29;100446.66;;;12.55;71.30
5966;BME280;3009;43.224;27.976;2023-04-10T10:25:01;100446.66;;;12.64;72.20
5966;BME280;3009;43.224;27.976;2023-04-10T10:27:30;100456.13;;;12.62;71.22
5966;BME280;3009;43.224;27.976;2023-04-10T10:29:59;100442.47;;;12.84;71.18
5966;BME280;3009;43.224;27.976;2023-04-10T10:32:44;100444.53;;;12.79;72.28
5966;BME280;3009;43.224;27.976;2023-04-10T10:35:13;100435.69;;;12.78;72.29
5966;BME280;3009;43.224;27.976;2023-04-10T10:37:43;100442.69;;;12.70;70.80
5966;BME280;3009;43.224;27.976;2023-04-10T10:40:18;100428.13;;;13.10;70.75
5966;BME280;3009;43.224;27.976;2023-04-10T10:42:54;100416.56;;;13.18;69.26
5966;BME280;3009;43.224;27.976;2023-04-10T10:45:30;100411.09;;;12.97;69.58
5966;BME280;3009;43.224;27.976;2023-04-10T10:48:00;100414.69;;;12.63;71.05
5966;BME280;3009;43.224;27.976;2023-04-10T10:50:51;100396.81;;;13.05;69.19
5966;BME280;3009;43.224;27.976;2023-04-10T10:53:34;100402.03;;;13.10;68.80
5966;BME280;3009;43.224;27.976;2023-04-10T10:56:35;100386.50;;;12.69;70.15
5966;BME280;3009;43.224;27.976;2023-04-10T10:59:03;100402.41;;;12.91;68.84
5966;BME280;3009;43.224;27.976;2023-04-10T11:01:32;100381.53;;;12.88;69.44
5966;BME280;3009;43.224;27.976;2023-04-10T11:04:41;100402.44;;;12.83;69.53
5966;BME280;3009;43.224;27.976;2023-04-10T11:07:09;100379.94;;;12.87;69.32
5966;BME280;3009;43.224;27.976;2023-04-10T11:09:45;100377.53;;;12.94;69.00
5966;BME280;3009;43.224;27.976;2023-04-10T11:12:21;100380.31;;;13.07;68.29
5966;BME280;3009;43.224;27.976;2023-04-10T11:14:58;100369.72;;;13.10;68.23
5966;BME280;3009;43.224;27.976;2023-04-10T11:17:45;100373.81;;;12.78;67.67
5966;BME280;3009;43.224;27.976;2023-04-10T11:20:15;100389.84;;;12.57;68.11
5966;BME280;3009;43.224;27.976;2023-04-10T11:23:07;100372.44;;;12.54;68.37
5966;BME280;3009;43.224;27.976;2023-04-10T11:25:50;100379.84;;;12.75;68.68
5966;BME280;3009;43.224;27.976;2023-04-10T11:28:36;100381.06;;;12.86;69.19
5966;BME280;3009;43.224;27.976;2023-04-10T11:31:19;100383.63;;;12.74;69.67
5966;BME280;3009;43.224;27.976;2023-04-10T11:33:50;100382.28;;;12.50;73.04
5966;BME280;3009;43.224;27.976;2023-04-10T11:36:28;100380.75;;;12.23;75.13
5966;BME280;3009;43.224;27.976;2023-04-10T11:38:57;100372.56;;;12.02;75.72
5966;BME280;3009;43.224;27.976;2023-04-10T11:41:27;100378.88;;;12.06;75.51
5966;BME280;3009;43.224;27.976;2023-04-10T11:43:59;100385.34;;;11.87;76.17
5966;BME280;3009;43.224;27.976;2023-04-10T11:46:28;100373.97;;;11.73;76.84
5966;BME280;3009;43.224;27.976;2023-04-10T11:48:58;100369.19;;;11.52;78.57
5966;BME280;3009;43.224;27.976;2023-04-10T11:51:27;100365.38;;;11.36;79.41
5966;BME280;3009;43.224;27.976;2023-04-10T11:54:04;100372.34;;;11.55;79.30
5966;BME280;3009;43.224;27.976;2023-04-10T11:56:33;100357.50;;;11.57;80.20
5966;BME280;3009;43.224;27.976;2023-04-10T11:59:04;100367.78;;;11.81;77.92
5966;BME280;3009;43.224;27.976;2023-04-10T12:01:37;100353.56;;;11.72;78.72
5966;BME280;3009;43.224;27.976;2023-04-10T12:04:15;100357.38;;;11.88;78.56
5966;BME280;3009;43.224;27.976;2023-04-10T12:06:44;100354.03;;;12.09;78.24
5966;BME280;3009;43.224;27.976;2023-04-10T12:09:15;100352.47;;;12.08;74.85
5966;BME280;3009;43.224;27.976;2023-04-10T12:11:50;100349.94;;;12.20;74.70
5966;BME280;3009;43.224;27.976;2023-04-10T12:14:21;100352.38;;;12.61;72.54
5966;BME280;3009;43.224;27.976;2023-04-10T12:16:50;100342.88;;;12.54;71.06
5966;BME280;3009;43.224;27.976;2023-04-10T12:19:20;100335.97;;;12.36;72.19
5966;BME280;3009;43.224;27.976;2023-04-10T12:21:49;100335.22;;;12.09;73.93
5966;BME280;3009;43.224;27.976;2023-04-10T12:24:41;100331.09;;;12.38;73.04
5966;BME280;3009;43.224;27.976;2023-04-10T12:27:17;100326.28;;;12.52;71.56
5966;BME280;3009;43.224;27.976;2023-04-10T12:29:48;100316.50;;;12.39;72.17
5966;BME280;3009;43.224;27.976;2023-04-10T12:32:17;100319.22;;;12.77;70.70
5966;BME280;3009;43.224;27.976;2023-04-10T12:34:49;100308.63;;;12.72;69.52
5966;BME280;3009;43.224;27.976;2023-04-10T12:37:17;100303.97;;;12.52;67.54
5966;BME280;3009;43.224;27.976;2023-04-10T12:39:46;100300.03;;;12.49;68.77
5966;BME280;3009;43.224;27.976;2023-04-10T12:42:16;100297.97;;;12.55;68.18
5966;BME280;3009;43.224;27.976;2023-04-10T12:44:54;100300.06;;;12.79;68.03
5966;BME280;3009;43.224;27.976;2023-04-10T12:47:25;100296.03;;;12.55;67.13
5966;BME280;3009;43.224;27.976;2023-04-10T12:50:04;100290.06;;;12.80;65.31
5966;BME280;3009;43.224;27.976;2023-04-10T12:52:34;100290.56;;;13.03;65.24
5966;BME280;3009;43.224;27.976;2023-04-10T12:55:13;100281.56;;;12.77;66.06
5966;BME280;3009;43.224;27.976;2023-04-10T12:57:42;100283.81;;;12.67;65.46
5966;BME280;3009;43.224;27.976;2023-04-10T13:00:15;100277.25;;;12.47;66.15
5966;BME280;3009;43.224;27.976;2023-04-10T13:02:44;100289.25;;;12.58;65.48
5966;BME280;3009;43.224;27.976;2023-04-10T13:05:14;100288.38;;;12.75;64.50
5966;BME280;3009;43.224;27.976;2023-04-10T13:07:42;100271.03;;;12.64;63.94
5966;BME280;3009;43.224;27.976;2023-04-10T13:10:11;100276.47;;;12.85;63.28
5966;BME280;3009;43.224;27.976;2023-04-10T13:12:39;100273.88;;;12.58;63.20
5966;BME280;3009;43.224;27.976;2023-04-10T13:15:09;100278.63;;;12.91;61.95
5966;BME280;3009;43.224;27.976;2023-04-10T13:17:39;100282.47;;;12.82;61.54
5966;BME280;3009;43.224;27.976;2023-04-10T13:20:08;100270.53;;;12.62;61.92
5966;BME280;3009;43.224;27.976;2023-04-10T13:22:37;100261.19;;;12.68;62.32
5966;BME280;3009;43.224;27.976;2023-04-10T13:25:06;100269.06;;;12.34;63.05